Terminal Aerodrome Forecast
Issued by NWS Tampa Bay Area, FL

Home | Current Version | Previous Version | Text Only | Print | Product List | Glossary On
Versions: 1 2 3 4 5 6 7 8 9 10 11 12
000
FTUS42 KTBW 300539
TAFSRQ
TAF
KSRQ 300539Z 3006/0106 25005KT P6SM FEW030 SCT250
     FM301400 26007KT P6SM VCTS SCT030CB SCT100 BKN250
     FM301800 28010KT P6SM FEW040 BKN250
     FM010100 VRB04KT P6SM FEW030 SCT250=

USA.gov is the U.S. government's official web portal to all federal, state and local government web resources and services.